Helm, Mississippi
Current Conditions -  °F | °C
As of 11:53 AM on Wednesday 26 Nov 2014 (Local Time) from KGLH Reporting Station
Clear Clear  
Wind Chill: 57°   Ceiling: Unl
Heat Index: 57°   Visibility: 10mi
Dew Point: 36°   Wind: 15mph
Humidity: 45%   Direction: 200°SSW
Pressure: 30.03"   Gusts: NA
Location:  33.4469°N, 90.8665°W
Report Text: KGLH 261753Z AUTO 20013KT 10SM CLR 14/02 A3003 RMK AO2 PRESFR SLP176 T01390022 10150 20000 58039
Loading
Personal Weather Stations






























Interactive Weather Map New forecast layout! Learn more

10-Day Weather Forecast

Advertisements
Track Severe Weather on mobile